createdAt,value
2023-02-20T00:00:51.904Z,101143.31
2023-02-20T00:01:56.529Z,101146.19
2023-02-20T00:02:58.985Z,101148.81
2023-02-20T00:04:01.424Z,101149.59
2023-02-20T00:05:04.222Z,101156.66
2023-02-20T00:06:07.377Z,101154.03
2023-02-20T00:07:10.255Z,101156.66
2023-02-20T00:08:13.061Z,101151.72
2023-02-20T00:09:15.972Z,101154.59
2023-02-20T00:10:19.288Z,101154.28
2023-02-20T00:11:22.191Z,101166.03
2023-02-20T00:12:24.703Z,101162.94
2023-02-20T00:13:27.159Z,101169.72
2023-02-20T00:14:30.392Z,101171.53
2023-02-20T00:15:32.782Z,101172.13
2023-02-20T00:16:35.212Z,101178.09
2023-02-20T00:17:37.821Z,101169.72
2023-02-20T00:18:40.418Z,101179.38
2023-02-20T00:19:42.935Z,101173.88
2023-02-20T00:20:45.289Z,101182.53
2023-02-20T00:21:49.426Z,101176.50
2023-02-20T00:22:53.087Z,101190.88
2023-02-20T00:23:55.499Z,101187.47
2023-02-20T00:24:57.860Z,101190.13
2023-02-20T00:26:00.307Z,101184.88
2023-02-20T00:27:02.716Z,101188.25
2023-02-20T00:28:05.473Z,101191.41
2023-02-20T00:29:07.815Z,101185.38
2023-02-20T00:30:18.106Z,101191.41
2023-02-20T00:31:21.493Z,101189.28
2023-02-20T00:32:23.945Z,101189.84
2023-02-20T00:33:26.306Z,101191.94
2023-02-20T00:34:29.095Z,101195.06
2023-02-20T00:35:31.562Z,101192.97
2023-02-20T00:36:33.853Z,101188.50
2023-02-20T00:37:36.255Z,101193.47
2023-02-20T00:38:38.637Z,101190.09
2023-02-20T00:39:41.106Z,101186.69
2023-02-20T00:40:43.445Z,101177.78
2023-02-20T00:41:45.943Z,101178.84
2023-02-20T00:42:48.342Z,101197.66
2023-02-20T00:43:50.711Z,101188.53
2023-02-20T00:44:53.124Z,101182.28
2023-02-20T00:45:56.009Z,101191.94
2023-02-20T00:46:58.657Z,101182.78
2023-02-20T00:48:01.537Z,101182.00
2023-02-20T00:49:04.561Z,101189.38
2023-02-20T00:50:22.335Z,101185.41
2023-02-20T00:51:26.569Z,101182.28
2023-02-20T00:52:28.973Z,101184.38
2023-02-20T00:53:31.462Z,101179.94
2023-02-20T00:54:34.151Z,101178.09
2023-02-20T00:55:36.658Z,101172.38
2023-02-20T00:56:39.097Z,101175.25
2023-02-20T00:57:42.050Z,101180.19
2023-02-20T00:58:45.124Z,101166.91
2023-02-20T00:59:47.890Z,101182.03
2023-02-20T01:00:50.305Z,101177.38
2023-02-20T01:01:52.957Z,101172.16
2023-02-20T01:02:56.078Z,101176.81
2023-02-20T01:03:58.809Z,101168.47
2023-02-20T01:05:01.365Z,101182.09
2023-02-20T01:06:04.849Z,101182.34
2023-02-20T01:07:07.520Z,101178.94
2023-02-20T01:08:10.199Z,101185.50
2023-02-20T01:09:13.633Z,101180.25
2023-02-20T01:10:18.260Z,101186.78
2023-02-20T01:11:20.634Z,101190.44
2023-02-20T01:12:22.937Z,101188.09
2023-02-20T01:13:25.619Z,101191.22
2023-02-20T01:14:27.952Z,101186.53
2023-02-20T01:15:30.428Z,101185.22
2023-02-20T01:16:32.939Z,101186.25
2023-02-20T01:17:35.608Z,101193.56
2023-02-20T01:18:40.848Z,101189.91
2023-02-20T01:19:44.772Z,101189.91
2023-02-20T01:20:47.140Z,101191.47
2023-02-20T01:21:50.254Z,101189.38
2023-02-20T01:22:53.433Z,101186.25
2023-02-20T01:23:55.833Z,101184.13
2023-02-20T01:24:58.187Z,101190.41
2023-02-20T01:26:00.604Z,101191.97
2023-02-20T01:27:04.583Z,101195.13
2023-02-20T01:28:11.352Z,101195.63
2023-02-20T01:29:14.642Z,101196.69
2023-02-20T01:30:17.297Z,101195.13
2023-02-20T01:31:19.763Z,101198.25
2023-02-20T01:32:22.444Z,101208.69
2023-02-20T01:33:24.897Z,101203.69
2023-02-20T01:34:27.509Z,101210.50
2023-02-20T01:35:32.286Z,101205.56
2023-02-20T01:36:34.998Z,101213.38
2023-02-20T01:37:37.808Z,101212.56
2023-02-20T01:38:41.705Z,101212.31
2023-02-20T01:39:46.873Z,101208.16
2023-02-20T01:40:51.061Z,101207.38
2023-02-20T01:42:02.559Z,101210.50
2023-02-20T01:43:05.046Z,101215.94
2023-02-20T01:44:19.696Z,101208.88
2023-02-20T01:45:22.105Z,101201.31
2023-02-20T01:46:27.839Z,101206.53
2023-02-20T01:47:30.330Z,101201.81
2023-02-20T01:48:34.612Z,101199.44
2023-02-20T01:49:44.929Z,101204.97
2023-02-20T01:50:48.512Z,101199.75
2023-02-20T01:52:19.250Z,101213.25
2023-02-20T01:53:23.965Z,101213.25
2023-02-20T01:54:28.078Z,101212.47
2023-02-20T01:55:37.048Z,101217.94
2023-02-20T01:56:39.550Z,101210.66
2023-02-20T01:57:48.530Z,101217.41
2023-02-20T01:58:51.941Z,101220.03
2023-02-20T01:59:59.868Z,101227.22
2023-02-20T02:01:05.128Z,101224.13
2023-02-20T02:02:08.379Z,101217.13
2023-02-20T02:03:18.402Z,101227.00
2023-02-20T02:04:21.202Z,101227.25
2023-02-20T02:05:25.314Z,101230.38
2023-02-20T02:06:34.410Z,101231.69
2023-02-20T02:07:37.129Z,101231.94
2023-02-20T02:08:42.462Z,101233.19
2023-02-20T02:09:57.890Z,101238.63
2023-02-20T02:11:10.384Z,101229.25
2023-02-20T02:12:12.941Z,101233.09
2023-02-20T02:13:15.481Z,101232.59
2023-02-20T02:14:18.800Z,101233.09
2023-02-20T02:15:24.333Z,101231.53
2023-02-20T02:16:43.250Z,101233.91
2023-02-20T02:17:58.658Z,101222.69
2023-02-20T02:19:31.614Z,101224.50
2023-02-20T02:20:49.488Z,101228.47
2023-02-20T02:22:05.454Z,101231.25
2023-02-20T02:23:37.355Z,101221.56
2023-02-20T02:25:27.296Z,101228.91
2023-02-20T02:27:14.221Z,101217.97
2023-02-20T02:28:42.216Z,101215.66
2023-02-20T02:30:22.913Z,101218.75
2023-02-20T02:31:54.815Z,101211.47
2023-02-20T02:33:23.751Z,101213.88
2023-02-20T02:34:55.911Z,101212.28
2023-02-20T02:36:31.906Z,101208.31
2023-02-20T02:37:55.153Z,101207.22
2023-02-20T02:39:16.199Z,101215.03
2023-02-20T02:40:18.496Z,101212.84
2023-02-20T02:41:42.369Z,101216.00
2023-02-20T02:43:13.477Z,101224.22
2023-02-20T02:44:30.796Z,101216.63
2023-02-20T02:45:42.653Z,101223.13
2023-02-20T02:46:56.708Z,101221.59
2023-02-20T02:48:21.440Z,101210.13
2023-02-20T02:49:46.742Z,101218.91
2023-02-20T02:50:53.535Z,101211.19
2023-02-20T02:51:56.885Z,101210.38
2023-02-20T02:52:59.620Z,101209.38
2023-02-20T02:54:28.721Z,101219.72
2023-02-20T02:55:34.022Z,101212.25
2023-02-20T02:56:38.885Z,101223.59
2023-02-20T02:57:41.571Z,101216.88
2023-02-20T02:58:44.133Z,101229.88
2023-02-20T02:59:50.105Z,101232.00
2023-02-20T03:01:00.607Z,101232.38
2023-02-20T03:02:09.284Z,101233.47
2023-02-20T03:03:27.035Z,101238.69
2023-02-20T03:04:31.463Z,101236.59
2023-02-20T03:05:48.541Z,101241.81
2023-02-20T03:06:59.607Z,101235.59
2023-02-20T03:08:05.778Z,101230.31
2023-02-20T03:09:16.199Z,101241.56
2023-02-20T03:10:31.773Z,101242.91
2023-02-20T03:11:36.364Z,101240.31
2023-02-20T03:12:43.620Z,101244.56
2023-02-20T03:14:12.204Z,101238.59
2023-02-20T03:15:36.100Z,101240.69
2023-02-20T03:17:26.750Z,101240.16
2023-02-20T03:18:39.895Z,101241.53
2023-02-20T03:19:52.161Z,101248.59
2023-02-20T03:20:59.268Z,101241.34
2023-02-20T03:22:04.569Z,101251.13
2023-02-20T03:23:09.601Z,101254.78
2023-02-20T03:24:14.676Z,101259.81
2023-02-20T03:25:26.809Z,101260.31
2023-02-20T03:26:34.975Z,101265.72
2023-02-20T03:27:44.848Z,101273.84
2023-02-20T03:28:57.165Z,101278.88
2023-02-20T03:30:00.871Z,101273.84
2023-02-20T03:31:11.601Z,101274.13
2023-02-20T03:32:34.114Z,101278.53
2023-02-20T03:34:01.699Z,101274.97
2023-02-20T03:35:24.484Z,101287.25
2023-02-20T03:37:02.240Z,101293.47
2023-02-20T03:38:26.518Z,101281.56
2023-02-20T03:39:53.015Z,101287.97
2023-02-20T03:41:17.153Z,101290.72
2023-02-20T03:42:41.239Z,101293.84
2023-02-20T03:43:53.227Z,101293.63
2023-02-20T03:44:58.010Z,101285.19
2023-02-20T03:46:12.226Z,101290.22
2023-02-20T03:47:17.793Z,101282.78
2023-02-20T03:48:33.698Z,101287.44
2023-02-20T03:49:40.464Z,101284.56
2023-02-20T03:50:44.697Z,101284.41
2023-02-20T03:51:48.007Z,101282.84
2023-02-20T03:53:05.670Z,101294.34
2023-02-20T03:54:08.710Z,101292.75
2023-02-20T03:55:12.137Z,101292.13
2023-02-20T03:56:19.839Z,101280.72
2023-02-20T03:57:27.835Z,101290.75
2023-02-20T03:58:35.005Z,101288.53
2023-02-20T04:00:02.648Z,101288.28
2023-02-20T04:01:11.995Z,101283.63
2023-02-20T04:02:25.245Z,101280.78
2023-02-20T04:03:32.857Z,101274.44
2023-02-20T04:04:42.372Z,101276.00
2023-02-20T04:05:48.507Z,101277.22
2023-02-20T04:06:54.678Z,101283.19
2023-02-20T04:08:10.625Z,101280.50
2023-02-20T04:09:20.157Z,101269.03
2023-02-20T04:10:27.653Z,101271.38
2023-02-20T04:11:36.445Z,101265.19
2023-02-20T04:12:43.127Z,101268.03
2023-02-20T04:13:49.347Z,101267.19
2023-02-20T04:14:56.031Z,101267.78
2023-02-20T04:16:01.971Z,101275.59
2023-02-20T04:17:12.158Z,101271.09
2023-02-20T04:18:18.467Z,101275.19
2023-02-20T04:19:21.848Z,101274.94
2023-02-20T04:20:25.196Z,101280.84
2023-02-20T04:21:43.537Z,101280.09
2023-02-20T04:22:50.103Z,101281.34
2023-02-20T04:24:03.685Z,101273.44
2023-02-20T04:25:49.198Z,101272.53
2023-02-20T04:26:51.893Z,101272.22
2023-02-20T04:27:54.611Z,101274.41
2023-02-20T04:28:57.526Z,101275.59
2023-02-20T04:30:00.393Z,101280.31
2023-02-20T04:31:02.917Z,101272.13
2023-02-20T04:32:06.921Z,101273.84
2023-02-20T04:33:13.817Z,101270.00
2023-02-20T04:34:18.797Z,101277.09
2023-02-20T04:35:25.698Z,101278.09
2023-02-20T04:36:29.649Z,101281.97
2023-02-20T04:37:34.506Z,101279.91
2023-02-20T04:38:38.265Z,101288.81
2023-02-20T04:39:43.826Z,101279.97
2023-02-20T04:40:46.891Z,101282.59
2023-02-20T04:41:49.462Z,101275.38
2023-02-20T04:42:52.086Z,101285.00
2023-02-20T04:44:14.681Z,101284.94
2023-02-20T04:45:18.143Z,101271.69
2023-02-20T04:46:23.382Z,101276.34
2023-02-20T04:47:26.381Z,101277.78
2023-02-20T04:48:30.426Z,101274.66
2023-02-20T04:49:33.466Z,101274.31
2023-02-20T04:50:38.550Z,101276.94
2023-02-20T04:51:44.612Z,101277.72
2023-02-20T04:52:47.571Z,101277.78
2023-02-20T04:53:49.981Z,101284.09
2023-02-20T04:54:52.513Z,101284.16
2023-02-20T04:55:55.614Z,101275.25
2023-02-20T04:57:00.767Z,101278.34
2023-02-20T04:58:03.523Z,101281.44
2023-02-20T04:59:14.110Z,101280.97
2023-02-20T05:00:19.068Z,101277.72
2023-02-20T05:01:21.516Z,101282.47
2023-02-20T05:02:25.724Z,101269.88
2023-02-20T05:03:28.157Z,101269.75
2023-02-20T05:04:30.518Z,101275.19
2023-02-20T05:05:33.092Z,101275.50
2023-02-20T05:06:42.150Z,101281.88
2023-02-20T05:07:44.527Z,101278.75
2023-02-20T05:08:48.408Z,101288.75
2023-02-20T05:09:52.619Z,101287.94
2023-02-20T05:10:55.119Z,101292.84
2023-02-20T05:11:57.555Z,101293.16
2023-02-20T05:13:00.418Z,101292.91
2023-02-20T05:14:03.077Z,101290.78
2023-02-20T05:15:05.700Z,101279.59
2023-02-20T05:16:08.886Z,101282.06
2023-02-20T05:17:11.592Z,101286.88
2023-02-20T05:18:14.899Z,101284.34
2023-02-20T05:19:18.286Z,101285.00
2023-02-20T05:20:21.168Z,101284.50
2023-02-20T05:21:42.230Z,101286.69
2023-02-20T05:22:48.573Z,101285.88
2023-02-20T05:23:50.956Z,101284.38
2023-02-20T05:24:53.412Z,101282.75
2023-02-20T05:25:56.002Z,101285.06
2023-02-20T05:26:59.334Z,101286.16
2023-02-20T05:28:02.002Z,101288.03
2023-02-20T05:29:05.225Z,101295.41
2023-02-20T05:30:09.119Z,101290.56
2023-02-20T05:31:13.645Z,101291.03
2023-02-20T05:32:18.342Z,101292.13
2023-02-20T05:33:39.386Z,101293.75
2023-02-20T05:34:41.746Z,101286.63
2023-02-20T05:35:44.528Z,101285.44
2023-02-20T05:36:47.171Z,101283.69
2023-02-20T05:37:49.567Z,101291.03
2023-02-20T05:38:51.920Z,101297.50
2023-02-20T05:39:54.631Z,101290.72
2023-02-20T05:40:57.654Z,101291.03
2023-02-20T05:42:00.313Z,101297.00
2023-02-20T05:43:02.738Z,101293.63
2023-02-20T05:44:05.645Z,101296.50
2023-02-20T05:45:09.324Z,101300.94
2023-02-20T05:46:12.515Z,101298.13
2023-02-20T05:47:15.368Z,101299.25
2023-02-20T05:48:17.890Z,101307.13
2023-02-20T05:49:20.615Z,101297.56
2023-02-20T05:50:23.036Z,101294.72
2023-02-20T05:51:28.252Z,101294.47
2023-02-20T05:52:30.756Z,101296.59
2023-02-20T05:53:33.642Z,101299.47
2023-02-20T05:54:36.552Z,101294.88
2023-02-20T05:55:39.091Z,101300.44
2023-02-20T05:56:42.963Z,101297.34
2023-02-20T05:57:45.432Z,101304.97
2023-02-20T05:58:49.378Z,101306.53
2023-02-20T05:59:51.874Z,101305.03
2023-02-20T06:00:54.316Z,101304.38
2023-02-20T06:01:58.028Z,101308.59
2023-02-20T06:03:00.360Z,101307.50
2023-02-20T06:04:03.434Z,101311.63
2023-02-20T06:05:07.805Z,101301.53
2023-02-20T06:06:11.111Z,101304.66
2023-02-20T06:07:13.966Z,101296.22
2023-02-20T06:08:16.470Z,101295.28
2023-02-20T06:09:19.041Z,101298.09
2023-02-20T06:10:21.973Z,101293.97
2023-02-20T06:11:24.617Z,101295.47
2023-02-20T06:12:27.434Z,101297.84
2023-02-20T06:13:29.839Z,101303.59
2023-02-20T06:14:32.174Z,101305.75
2023-02-20T06:15:34.638Z,101302.34
2023-02-20T06:16:37.285Z,101304.66
2023-02-20T06:17:39.709Z,101305.22
2023-02-20T06:18:42.783Z,101309.13
2023-02-20T06:19:45.387Z,101309.88
2023-02-20T06:20:47.844Z,101312.25
2023-02-20T06:21:53.658Z,101317.97
2023-02-20T06:22:57.641Z,101312.56
2023-02-20T06:24:00.183Z,101314.41
2023-02-20T06:25:02.486Z,101319.88
2023-02-20T06:26:05.975Z,101324.03
2023-02-20T06:27:08.837Z,101337.97
2023-02-20T06:28:11.527Z,101336.38
2023-02-20T06:29:15.742Z,101343.97
2023-02-20T06:30:18.314Z,101343.19
2023-02-20T06:31:25.883Z,101346.59
2023-02-20T06:32:28.650Z,101347.94
2023-02-20T06:33:31.172Z,101346.41
2023-02-20T06:34:34.370Z,101349.25
2023-02-20T06:35:39.475Z,101347.69
2023-02-20T06:36:45.356Z,101346.66
2023-02-20T06:37:47.831Z,101349.50
2023-02-20T06:38:50.599Z,101345.16
2023-02-20T06:39:52.980Z,101349.09
2023-02-20T06:40:55.422Z,101348.31
2023-02-20T06:41:58.740Z,101341.53
2023-02-20T06:43:01.337Z,101340.28
2023-02-20T06:44:04.448Z,101346.06
2023-02-20T06:45:07.276Z,101341.34
2023-02-20T06:46:10.137Z,101340.03
2023-02-20T06:47:12.832Z,101340.41
2023-02-20T06:48:16.035Z,101337.03
2023-02-20T06:49:18.654Z,101345.44
2023-02-20T06:50:21.502Z,101341.81
2023-02-20T06:51:33.505Z,101343.59
2023-02-20T06:52:35.986Z,101340.47
2023-02-20T06:53:39.017Z,101337.16
2023-02-20T06:54:44.976Z,101336.63
2023-02-20T06:55:47.954Z,101343.22
2023-02-20T06:56:51.363Z,101341.91
2023-02-20T06:57:53.959Z,101341.44
2023-02-20T06:58:58.813Z,101335.41
2023-02-20T07:00:01.306Z,101338.31
2023-02-20T07:01:05.515Z,101337.75
2023-02-20T07:02:15.598Z,101340.88
2023-02-20T07:03:18.037Z,101349.22
2023-02-20T07:04:23.159Z,101359.81
2023-02-20T07:05:25.643Z,101365.56
2023-02-20T07:06:28.273Z,101359.72
2023-02-20T07:07:30.827Z,101369.09
2023-02-20T07:08:33.217Z,101370.25
2023-02-20T07:09:35.901Z,101362.91
2023-02-20T07:10:38.390Z,101366.97
2023-02-20T07:11:41.083Z,101367.78
2023-02-20T07:12:43.617Z,101364.81
2023-02-20T07:13:46.452Z,101359.53
2023-02-20T07:14:51.729Z,101357.44
2023-02-20T07:15:54.810Z,101361.59
2023-02-20T07:16:57.582Z,101353.03
2023-02-20T07:18:00.129Z,101363.19
2023-02-20T07:19:02.711Z,101357.25
2023-02-20T07:20:07.029Z,101348.31
2023-02-20T07:21:09.814Z,101364.72
2023-02-20T07:22:14.657Z,101356.50
2023-02-20T07:23:17.545Z,101355.84
2023-02-20T07:24:20.210Z,101357.13
2023-02-20T07:25:23.021Z,101353.19
2023-02-20T07:26:28.266Z,101353.06
2023-02-20T07:27:30.752Z,101354.03
2023-02-20T07:28:37.426Z,101346.63
2023-02-20T07:29:41.576Z,101355.41
2023-02-20T07:30:44.379Z,101354.53
2023-02-20T07:31:46.859Z,101353.44
2023-02-20T07:32:49.214Z,101349.69
2023-02-20T07:33:51.894Z,101351.09
2023-02-20T07:35:03.319Z,101345.91
2023-02-20T07:36:40.258Z,101336.28
2023-02-20T07:39:34.012Z,101336.13
2023-02-20T07:40:38.898Z,101333.00
2023-02-20T07:41:43.237Z,101336.75
2023-02-20T07:43:03.828Z,101335.16
2023-02-20T07:44:07.003Z,101332.84
2023-02-20T07:45:11.142Z,101339.53
2023-02-20T07:46:14.162Z,101336.91
2023-02-20T07:47:17.196Z,101348.97
2023-02-20T07:48:23.018Z,101345.84
2023-02-20T07:49:35.028Z,101345.75
2023-02-20T07:50:37.702Z,101352.47
2023-02-20T07:51:40.445Z,101353.19
2023-02-20T07:52:46.255Z,101352.81
2023-02-20T07:53:53.345Z,101350.91
2023-02-20T07:54:56.202Z,101353.94
2023-02-20T07:56:01.563Z,101363.88
2023-02-20T07:57:04.069Z,101354.81
2023-02-20T07:58:07.120Z,101361.25
2023-02-20T07:59:10.308Z,101361.22
2023-02-20T08:00:18.511Z,101353.53
2023-02-20T08:01:21.104Z,101363.78
2023-02-20T08:02:23.488Z,101361.09
2023-02-20T08:03:25.795Z,101362.97
2023-02-20T08:04:28.078Z,101354.44
2023-02-20T08:05:40.254Z,101359.97
2023-02-20T08:06:46.019Z,101348.34
2023-02-20T08:08:13.799Z,101342.44
2023-02-20T08:09:16.351Z,101344.22
2023-02-20T08:10:22.070Z,101352.25
2023-02-20T08:11:27.372Z,101340.06
2023-02-20T08:12:29.820Z,101341.75
2023-02-20T08:13:32.366Z,101338.47
2023-02-20T08:14:34.681Z,101327.69
2023-02-20T08:15:37.170Z,101329.34
2023-02-20T08:16:39.656Z,101323.97
2023-02-20T08:17:46.984Z,101328.28
2023-02-20T08:18:49.930Z,101324.53
2023-02-20T08:19:52.632Z,101326.41
2023-02-20T08:20:55.800Z,101320.81
2023-02-20T08:21:59.990Z,101322.91
2023-02-20T08:23:02.451Z,101323.03
2023-02-20T08:24:05.374Z,101322.03
2023-02-20T08:25:08.182Z,101318.16
2023-02-20T08:26:11.166Z,101313.75
2023-02-20T08:27:13.942Z,101310.97
2023-02-20T08:28:16.841Z,101315.50
2023-02-20T08:29:19.366Z,101304.16
2023-02-20T08:30:25.251Z,101307.53
2023-02-20T08:31:32.494Z,101303.31
2023-02-20T08:32:35.595Z,101307.22
2023-02-20T08:33:38.096Z,101305.59
2023-02-20T08:34:41.274Z,101308.69
2023-02-20T08:35:43.768Z,101306.63
2023-02-20T08:36:46.286Z,101302.91
2023-02-20T08:37:48.837Z,101304.72
2023-02-20T08:38:51.505Z,101302.16
2023-02-20T08:39:53.920Z,101305.59
2023-02-20T08:40:56.595Z,101308.22
2023-02-20T08:41:58.959Z,101297.38
2023-02-20T08:43:01.457Z,101300.16
2023-02-20T08:44:03.974Z,101289.06
2023-02-20T08:45:09.254Z,101289.56
2023-02-20T08:46:12.507Z,101289.31
2023-02-20T08:47:15.104Z,101286.25
2023-02-20T08:48:17.567Z,101284.72
2023-02-20T08:49:22.699Z,101278.84
2023-02-20T08:50:26.893Z,101275.69
2023-02-20T08:51:29.261Z,101285.19
2023-02-20T08:52:31.714Z,101286.25
2023-02-20T08:53:35.279Z,101281.94
2023-02-20T08:54:37.678Z,101285.44
2023-02-20T08:55:40.364Z,101278.44
2023-02-20T08:56:43.289Z,101280.59
2023-02-20T08:57:45.792Z,101274.22
2023-02-20T08:58:48.637Z,101275.22
2023-02-20T08:59:51.111Z,101273.28
2023-02-20T09:00:54.907Z,101266.31
2023-02-20T09:01:57.726Z,101267.88
2023-02-20T09:03:00.501Z,101274.75
2023-02-20T09:04:03.644Z,101268.31
2023-02-20T09:05:07.874Z,101267.78
2023-02-20T09:06:10.500Z,101261.19
2023-02-20T09:07:14.462Z,101252.81
2023-02-20T09:08:16.968Z,101252.00
2023-02-20T09:09:19.568Z,101262.41
2023-02-20T09:10:22.450Z,101259.84
2023-02-20T09:11:25.186Z,101260.69
2023-02-20T09:12:27.874Z,101257.28
2023-02-20T09:13:49.581Z,101249.38
2023-02-20T09:14:52.139Z,101251.50
2023-02-20T09:15:54.429Z,101249.63
2023-02-20T09:16:56.784Z,101243.81
2023-02-20T09:17:59.305Z,101245.06
2023-02-20T09:19:02.630Z,101244.53
2023-02-20T09:20:10.705Z,101245.66
2023-02-20T09:21:38.078Z,101243.09
2023-02-20T09:22:41.236Z,101243.16
2023-02-20T09:23:43.892Z,101240.09
2023-02-20T09:24:48.046Z,101246.78
2023-02-20T09:25:51.321Z,101243.94
2023-02-20T09:26:56.944Z,101230.56
2023-02-20T09:28:50.143Z,101235.34
2023-02-20T09:29:52.803Z,101225.06
2023-02-20T09:30:57.531Z,101232.13
2023-02-20T09:32:00.422Z,101240.78
2023-02-20T09:33:03.296Z,101226.81
2023-02-20T09:34:05.824Z,101222.03
2023-02-20T09:35:08.462Z,101235.72
2023-02-20T09:36:11.323Z,101234.06
2023-02-20T09:37:14.818Z,101235.25
2023-02-20T09:38:17.972Z,101233.38
2023-02-20T09:39:20.648Z,101227.94
2023-02-20T09:40:27.375Z,101224.81
2023-02-20T09:41:53.929Z,101227.84
2023-02-20T09:43:21.088Z,101230.50
2023-02-20T09:44:32.507Z,101227.34
2023-02-20T09:45:38.509Z,101222.88
2023-02-20T09:46:46.750Z,101227.25
2023-02-20T09:47:58.882Z,101240.94
2023-02-20T09:49:26.094Z,101236.63
2023-02-20T09:50:45.288Z,101241.78
2023-02-20T09:52:01.851Z,101237.53
2023-02-20T09:53:38.916Z,101236.53
2023-02-20T09:54:52.110Z,101227.47
2023-02-20T09:55:55.975Z,101218.78
2023-02-20T09:57:05.493Z,101212.84
2023-02-20T09:58:34.345Z,101223.91
2023-02-20T09:59:42.632Z,101223.16
2023-02-20T10:00:52.705Z,101218.38
2023-02-20T10:02:05.246Z,101215.22
2023-02-20T10:05:21.436Z,101195.50
2023-02-20T10:06:31.012Z,101200.69
2023-02-20T10:07:43.836Z,101195.34
2023-02-20T10:08:51.718Z,101202.56
2023-02-20T10:09:55.508Z,101196.41
2023-02-20T10:11:03.912Z,101186.59
2023-02-20T10:12:31.530Z,101184.13
2023-02-20T10:13:55.437Z,101187.97
2023-02-20T10:15:09.300Z,101187.44
2023-02-20T10:16:44.367Z,101187.66
2023-02-20T10:18:01.386Z,101194.47
2023-02-20T10:19:22.119Z,101186.69
2023-02-20T10:20:24.775Z,101183.78
2023-02-20T10:21:33.103Z,101184.22
2023-02-20T10:23:03.117Z,101185.69
2023-02-20T10:24:22.718Z,101170.97
2023-02-20T10:25:38.829Z,101175.06
2023-02-20T10:26:47.785Z,101170.72
2023-02-20T10:28:03.378Z,101177.09
2023-02-20T10:29:40.276Z,101170.38
2023-02-20T10:31:01.444Z,101171.34
2023-02-20T10:32:15.952Z,101172.16
2023-02-20T10:33:23.695Z,101171.66
2023-02-20T10:34:34.806Z,101172.66
2023-02-20T10:35:44.450Z,101166.63
2023-02-20T10:36:52.140Z,101168.56
2023-02-20T10:37:58.492Z,101165.34
2023-02-20T10:39:07.299Z,101165.22
2023-02-20T10:40:12.554Z,101159.59
2023-02-20T10:41:29.204Z,101158.34
2023-02-20T10:42:42.537Z,101160.34
2023-02-20T10:43:52.568Z,101153.28
2023-02-20T10:45:00.923Z,101144.19
2023-02-20T10:46:03.380Z,101148.88
2023-02-20T10:47:14.469Z,101139.94
2023-02-20T10:48:17.940Z,101136.78
2023-02-20T10:49:36.313Z,101143.31
2023-02-20T10:50:50.562Z,101134.66
2023-02-20T10:51:59.672Z,101137.41
2023-02-20T10:53:31.770Z,101130.19
2023-02-20T10:54:37.325Z,101124.63
2023-02-20T10:57:40.024Z,101115.69
2023-02-20T10:58:53.585Z,101117.41
2023-02-20T11:00:09.992Z,101116.16
2023-02-20T11:01:22.486Z,101101.75
2023-02-20T11:02:28.742Z,101103.59
2023-02-20T11:03:37.144Z,101096.56
2023-02-20T11:04:42.725Z,101096.63
2023-02-20T11:05:51.390Z,101096.63
2023-02-20T11:07:16.042Z,101086.75
2023-02-20T11:08:21.144Z,101078.06
2023-02-20T11:09:23.716Z,101092.31
2023-02-20T11:10:26.450Z,101083.97
2023-02-20T11:11:46.902Z,101081.81
2023-02-20T11:12:57.184Z,101070.59
2023-02-20T11:14:01.443Z,101063.59
2023-02-20T11:15:11.935Z,101071.91
2023-02-20T11:16:38.965Z,101068.78
2023-02-20T11:17:42.427Z,101063.50
2023-02-20T11:18:45.081Z,101069.91
2023-02-20T11:19:56.279Z,101075.41
2023-02-20T11:20:58.787Z,101071.69
2023-02-20T11:22:01.317Z,101074.47
2023-02-20T11:23:03.700Z,101072.75
2023-02-20T11:24:25.803Z,101080.88
2023-02-20T11:25:28.193Z,101080.50
2023-02-20T11:26:33.056Z,101078.03
2023-02-20T11:27:35.479Z,101082.34
2023-02-20T11:28:39.367Z,101076.09
2023-02-20T11:29:48.211Z,101079.38
2023-02-20T11:31:00.807Z,101077.41
2023-02-20T11:32:24.613Z,101080.75
2023-02-20T11:33:31.942Z,101088.06
2023-02-20T11:34:34.438Z,101073.97
2023-02-20T11:35:42.064Z,101079.03
2023-02-20T11:36:52.264Z,101080.38
2023-02-20T11:38:19.159Z,101070.72
2023-02-20T11:39:27.103Z,101065.03
2023-02-20T11:40:32.296Z,101055.63
2023-02-20T11:41:37.336Z,101055.53
2023-02-20T11:42:40.207Z,101055.31
2023-02-20T11:43:59.249Z,101049.56
2023-02-20T11:45:13.862Z,101049.41
2023-02-20T11:46:22.027Z,101054.63
2023-02-20T11:47:28.558Z,101057.38
2023-02-20T11:48:31.147Z,101053.06
2023-02-20T11:49:33.579Z,101053.44
2023-02-20T11:50:54.478Z,101043.72
2023-02-20T11:52:08.949Z,101046.47
2023-02-20T11:53:30.101Z,101042.34
2023-02-20T11:54:32.883Z,101042.03
2023-02-20T11:55:35.854Z,101038.19
2023-02-20T11:56:52.820Z,101036.47
2023-02-20T11:57:56.039Z,101036.47
2023-02-20T11:59:25.671Z,101023.28
2023-02-20T12:00:44.426Z,101027.47
2023-02-20T12:01:59.190Z,101030.53
2023-02-20T12:03:09.252Z,101023.00
2023-02-20T12:04:20.925Z,101017.63
2023-02-20T12:05:40.919Z,101012.78
2023-02-20T12:06:43.579Z,101012.16
2023-02-20T12:07:52.210Z,101007.53
2023-02-20T12:08:57.282Z,101001.81
2023-02-20T12:10:11.864Z,100997.31
2023-02-20T12:11:25.016Z,100995.75
2023-02-20T12:12:30.546Z,100998.25
2023-02-20T12:13:43.439Z,100994.50
2023-02-20T12:14:45.773Z,101001.50
2023-02-20T12:16:00.213Z,100987.47
2023-02-20T12:17:22.377Z,100992.94
2023-02-20T12:18:37.178Z,100983.34
2023-02-20T12:19:49.670Z,100981.16
2023-02-20T12:21:13.913Z,100970.16
2023-02-20T12:22:33.554Z,100972.97
2023-02-20T12:23:45.295Z,100969.53
2023-02-20T12:25:17.401Z,100964.72
2023-02-20T12:26:38.366Z,100960.38
2023-02-20T12:27:59.609Z,100973.56
2023-02-20T12:29:37.264Z,100972.31
2023-02-20T12:30:51.969Z,100972.03
2023-02-20T12:32:01.238Z,100960.38
2023-02-20T12:33:03.494Z,100952.91
2023-02-20T12:34:30.691Z,100948.25
2023-02-20T12:35:35.706Z,100953.22
2023-02-20T12:36:53.006Z,100942.19
2023-02-20T12:37:59.291Z,100939.09
2023-02-20T12:39:05.111Z,100945.63
2023-02-20T12:40:10.456Z,100940.66
2023-02-20T12:41:34.273Z,100945.34
2023-02-20T12:43:17.669Z,100945.97
2023-02-20T12:45:05.917Z,100945.34
2023-02-20T12:46:26.619Z,100943.63
2023-02-20T12:47:38.738Z,100937.28
2023-02-20T12:49:18.778Z,100930.47
2023-02-20T12:50:36.490Z,100928.88
2023-02-20T12:51:49.431Z,100933.38
2023-02-20T12:53:33.142Z,100932.47
2023-02-20T12:54:54.512Z,100927.00
2023-02-20T12:56:16.424Z,100927.00
2023-02-20T12:57:40.520Z,100929.97
2023-02-20T12:58:55.324Z,100925.31
2023-02-20T13:00:07.228Z,100922.22
2023-02-20T13:01:22.808Z,100914.47
2023-02-20T13:02:42.078Z,100914.78
2023-02-20T13:03:57.110Z,100910.44